航空気象通報

ウインドサーファーのための航空気象通報による風予報です。

5/18-5/20の航空気象通報

2017年05月19日 00時37分43秒 | TAF
羽田空港
TAF RJTT 181106Z 1812/1918 12006KT 9999 FEW020
TEMPO 1818/1900 4000 BR FEW003 BKN008
BECMG 1900/1903 18012KT
日本時間18日21時-19日09時:120度から6ノットの風
09-12時:風が変化
12時-20日03時:180度から12ノットの風

但し、19日03-09時の間:ときどき

静岡空港
TAF RJNS 181107Z 1812/1918 28004KT 8000 FEW008 BKN080
BECMG 1900/1903 22012KT
BECMG 1912/1915 28006KT
日本時間18日21時-19日09時:280度から4ノットの風
09-12時:風が変化
12-21時:220度から12ノットの風
21-24時:風が変化
20日00-03時:280度から6ノットの風


福岡空港
TAF RJFF 181110Z 1812/1918 36005KT 9999 FEW030
BECMG 1812/1814 15005KT
BECMG 1900/1903 31008KT
BECMG 1912/1915 15008KT
日本時間18日21時:360度から5ノットの風
21-23時:風が変化
23時-19日09時:150度から5ノットの風
09-12時:風が変化
12-21時:310度から8ノットの風
21-24時:風が変化
20日00-03時:150度から8ノットの風


那覇空港
TAF ROAH 181106Z 1812/1918 07006KT 9999 FEW030
BECMG 1903/1906 10012KT
日本時間18日21時-19日12時:070度から6ノットの風
12-15時:風が変化
15時-20日03時:100度から12ノットの風


石垣空港
TAF ROIG 181107Z 1812/1918 08012KT 9999 FEW025
日本時間18日21時-20日03時:080度から12ノットの風


マウイのカフルイ空港
PHOG 181139Z 1812/1912 11006KT P6SM SKC
FM182000 04015G23KT P6SM BKN060
FM190500 05010KT P6SM SCT060 AMD LTD TO VIS AND WIND TIL 181600
ハワイ時間18日02-10時:110度から6ノットの風

10-19時:040度から15ノット、突風23ノット

19時-19日02時:050度から10ノットの風


サイパン空港
TAF PGSN 181126Z 1812/1912 08014KT P6SM FEW020
FM182300 09012G18KT P6SM FEW020
マリアナ時間18日22時-19日09時:080度から14ノットの風
09-22時:090度から12ノット、突風18ノット

ジャンル:
お天気
コメント   この記事についてブログを書く
この記事をはてなブックマークに追加
« 5/17-5/19の航空気象通報 | トップ | 5/19-5/21の航空気象通報 »
最近の画像もっと見る

コメントを投稿

ブログ作成者から承認されるまでコメントは反映されません。

TAF」カテゴリの最新記事

トラックバック

この記事のトラックバック  Ping-URL
ブログ作成者から承認されるまでトラックバックは反映されません。
  • 30日以上前の記事に対するトラックバックは受け取らないよう設定されております。
  • 送信元の記事内容が半角英数のみのトラックバックは受け取らないよう設定されております。
  • このブログへのリンクがない記事からのトラックバックは受け取らないよう設定されております。
  • ※ブログ管理者のみ、編集画面で設定の変更が可能です。